sensor_id;sensor_type;location;lat;lon;timestamp;pressure;altitude;pressure_sealevel;temperature;humidity
64602;BME280;51013;42.630;23.192;2023-02-20T00:01:51;92684.38;;;7.63;71.04
64602;BME280;51013;42.630;23.192;2023-02-20T00:04:18;92694.22;;;7.58;71.53
64602;BME280;51013;42.630;23.192;2023-02-20T00:06:45;92698.69;;;7.57;70.82
64602;BME280;51013;42.630;23.192;2023-02-20T00:09:13;92698.69;;;7.57;71.54
64602;BME280;51013;42.630;23.192;2023-02-20T00:11:41;92699.31;;;7.54;71.24
64602;BME280;51013;42.630;23.192;2023-02-20T00:14:08;92715.13;;;7.58;72.03
64602;BME280;51013;42.630;23.192;2023-02-20T00:16:35;92715.13;;;7.58;71.44
64602;BME280;51013;42.630;23.192;2023-02-20T00:19:02;92714.38;;;7.57;71.63
64602;BME280;51013;42.630;23.192;2023-02-20T00:21:28;92698.38;;;7.59;72.22
64602;BME280;51013;42.630;23.192;2023-02-20T00:23:55;92697.75;;;7.53;71.82
64602;BME280;51013;42.630;23.192;2023-02-20T00:26:22;92699.00;;;7.47;72.81
64602;BME280;51013;42.630;23.192;2023-02-20T00:28:50;92696.53;;;7.51;73.09
64602;BME280;51013;42.630;23.192;2023-02-20T00:31:17;92685.16;;;7.47;73.58
64602;BME280;51013;42.630;23.192;2023-02-20T00:33:44;92691.31;;;7.51;73.76
64602;BME280;51013;42.630;23.192;2023-02-20T00:36:15;92695.78;;;7.50;73.98
64602;BME280;51013;42.630;23.192;2023-02-20T00:38:42;92691.91;;;7.48;74.30
64602;BME280;51013;42.630;23.192;2023-02-20T00:41:11;92693.59;;;7.43;74.09
64602;BME280;51013;42.630;23.192;2023-02-20T00:43:39;92686.22;;;7.37;74.30
64602;BME280;51013;42.630;23.192;2023-02-20T00:46:10;92690.53;;;7.41;74.04
64602;BME280;51013;42.630;23.192;2023-02-20T00:48:37;92680.69;;;7.47;73.53
64602;BME280;51013;42.630;23.192;2023-02-20T00:51:03;92672.38;;;7.45;72.89
64602;BME280;51013;42.630;23.192;2023-02-20T00:53:30;92683.00;;;7.49;73.42
64602;BME280;51013;42.630;23.192;2023-02-20T00:55:57;92678.22;;;7.33;73.47
64602;BME280;51013;42.630;23.192;2023-02-20T00:58:23;92710.19;;;7.48;73.41
64602;BME280;51013;42.630;23.192;2023-02-20T01:00:50;92717.75;;;7.40;73.86
64602;BME280;51013;42.630;23.192;2023-02-20T01:03:18;92713.75;;;7.34;74.02
64602;BME280;51013;42.630;23.192;2023-02-20T01:05:46;92669.44;;;6.94;74.31
64602;BME280;51013;42.630;23.192;2023-02-20T01:08:13;92720.00;;;7.07;75.54
64602;BME280;51013;42.630;23.192;2023-02-20T01:10:39;92723.06;;;7.09;75.04
64602;BME280;51013;42.630;23.192;2023-02-20T01:13:06;92720.78;;;7.08;75.82
64602;BME280;51013;42.630;23.192;2023-02-20T01:15:33;92735.72;;;7.16;75.83
64602;BME280;51013;42.630;23.192;2023-02-20T01:17:59;92725.09;;;7.21;76.09
64602;BME280;51013;42.630;23.192;2023-02-20T01:20:27;92727.06;;;7.07;76.94
64602;BME280;51013;42.630;23.192;2023-02-20T01:22:54;92738.47;;;7.11;76.40
64602;BME280;51013;42.630;23.192;2023-02-20T01:25:21;92724.16;;;7.17;76.78
64602;BME280;51013;42.630;23.192;2023-02-20T01:27:48;92714.22;;;7.36;75.63
64602;BME280;51013;42.630;23.192;2023-02-20T01:30:14;92705.28;;;7.37;75.27
64602;BME280;51013;42.630;23.192;2023-02-20T01:32:41;92710.84;;;7.45;76.09
64602;BME280;51013;42.630;23.192;2023-02-20T01:35:08;92698.50;;;7.54;76.12
64602;BME280;51013;42.630;23.192;2023-02-20T01:37:36;92702.22;;;7.53;76.45
64602;BME280;51013;42.630;23.192;2023-02-20T01:40:04;92707.00;;;7.51;78.20
64602;BME280;51013;42.630;23.192;2023-02-20T01:42:32;92713.44;;;7.62;81.76
64602;BME280;51013;42.630;23.192;2023-02-20T01:45:24;92719.28;;;7.41;80.06
64602;BME280;51013;42.630;23.192;2023-02-20T01:47:54;92672.81;;;6.95;81.51
64602;BME280;51013;42.630;23.192;2023-02-20T01:50:25;92730.50;;;7.51;82.08
64602;BME280;51013;42.630;23.192;2023-02-20T01:53:01;92732.81;;;7.43;82.64
64602;BME280;51013;42.630;23.192;2023-02-20T01:55:30;92698.81;;;7.17;84.28
64602;BME280;51013;42.630;23.192;2023-02-20T01:58:00;92740.03;;;7.29;85.31
64602;BME280;51013;42.630;23.192;2023-02-20T02:00:28;92749.09;;;7.32;86.17
64602;BME280;51013;42.630;23.192;2023-02-20T02:02:58;92753.41;;;7.36;86.73
64602;BME280;51013;42.630;23.192;2023-02-20T02:05:28;92754.31;;;7.32;86.75
64602;BME280;51013;42.630;23.192;2023-02-20T02:07:57;92762.78;;;7.29;85.29
64602;BME280;51013;42.630;23.192;2023-02-20T02:10:28;92762.91;;;7.23;86.48
64602;BME280;51013;42.630;23.192;2023-02-20T02:12:56;92751.69;;;7.23;85.33
64602;BME280;51013;42.630;23.192;2023-02-20T02:15:23;92733.38;;;7.06;85.40
64602;BME280;51013;42.630;23.192;2023-02-20T02:18:06;92760.47;;;7.36;85.61
64602;BME280;51013;42.630;23.192;2023-02-20T02:27:12;92777.16;;;7.00;79.74
64602;BME280;51013;42.630;23.192;2023-02-20T02:33:00;92793.78;;;7.13;80.41
64602;BME280;51013;42.630;23.192;2023-02-20T02:38:39;92798.06;;;7.00;77.45
64602;BME280;51013;42.630;23.192;2023-02-20T02:41:19;92798.47;;;6.93;77.45
64602;BME280;51013;42.630;23.192;2023-02-20T02:43:53;92747.38;;;6.61;78.03
64602;BME280;51013;42.630;23.192;2023-02-20T02:46:26;92796.22;;;7.09;78.17
64602;BME280;51013;42.630;23.192;2023-02-20T02:48:59;92796.22;;;7.00;77.26
64602;BME280;51013;42.630;23.192;2023-02-20T02:51:33;92795.91;;;7.02;76.65
64602;BME280;51013;42.630;23.192;2023-02-20T02:54:05;92796.03;;;6.97;77.71
64602;BME280;51013;42.630;23.192;2023-02-20T02:56:33;92798.81;;;6.92;77.85
64602;BME280;51013;42.630;23.192;2023-02-20T02:59:02;92791.25;;;6.90;77.96
64602;BME280;51013;42.630;23.192;2023-02-20T03:01:33;92794.91;;;6.80;79.43
64602;BME280;51013;42.630;23.192;2023-02-20T03:04:02;92800.31;;;6.84;79.72
64602;BME280;51013;42.630;23.192;2023-02-20T03:06:33;92789.50;;;6.77;78.84
64602;BME280;51013;42.630;23.192;2023-02-20T03:09:07;92804.09;;;6.69;77.32
64602;BME280;51013;42.630;23.192;2023-02-20T03:11:37;92800.06;;;6.63;76.76
64602;BME280;51013;42.630;23.192;2023-02-20T03:14:09;92795.59;;;6.64;77.50
64602;BME280;51013;42.630;23.192;2023-02-20T03:16:57;92792.56;;;6.70;78.01
64602;BME280;51013;42.630;23.192;2023-02-20T03:19:27;92804.03;;;6.60;79.32
64602;BME280;51013;42.630;23.192;2023-02-20T03:21:57;92800.38;;;6.70;79.02
64602;BME280;51013;42.630;23.192;2023-02-20T03:24:28;92814.38;;;6.74;77.58
64602;BME280;51013;42.630;23.192;2023-02-20T03:26:58;92835.09;;;6.71;78.24
64602;BME280;51013;42.630;23.192;2023-02-20T03:29:30;92832.91;;;6.64;76.58
64602;BME280;51013;42.630;23.192;2023-02-20T03:32:03;92819.94;;;6.50;76.55
64602;BME280;51013;42.630;23.192;2023-02-20T03:34:49;92851.47;;;6.62;75.85
64602;BME280;51013;42.630;23.192;2023-02-20T03:37:36;92855.25;;;6.48;76.32
64602;BME280;51013;42.630;23.192;2023-02-20T03:40:24;92840.53;;;6.52;77.52
64602;BME280;51013;42.630;23.192;2023-02-20T03:43:11;92829.66;;;6.58;77.33
64602;BME280;51013;42.630;23.192;2023-02-20T03:45:51;92820.38;;;6.44;75.64
64602;BME280;51013;42.630;23.192;2023-02-20T03:48:21;92850.53;;;6.58;75.63
64602;BME280;51013;42.630;23.192;2023-02-20T03:50:50;92846.16;;;6.68;75.21
64602;BME280;51013;42.630;23.192;2023-02-20T03:53:17;92833.00;;;6.50;76.64
64602;BME280;51013;42.630;23.192;2023-02-20T03:55:46;92829.41;;;6.69;76.66
64602;BME280;51013;42.630;23.192;2023-02-20T03:58:16;92809.78;;;6.49;75.47
64602;BME280;51013;42.630;23.192;2023-02-20T04:00:47;92823.38;;;6.59;76.69
64602;BME280;51013;42.630;23.192;2023-02-20T04:03:16;92839.91;;;6.55;75.03
64602;BME280;51013;42.630;23.192;2023-02-20T04:05:47;92831.00;;;6.47;75.19
64602;BME280;51013;42.630;23.192;2023-02-20T04:08:17;92832.19;;;6.41;75.26
64602;BME280;51013;42.630;23.192;2023-02-20T04:10:50;92833.84;;;6.37;75.92
64602;BME280;51013;42.630;23.192;2023-02-20T04:13:19;92833.84;;;6.37;76.49
64602;BME280;51013;42.630;23.192;2023-02-20T04:15:46;92834.78;;;6.41;75.95
64602;BME280;51013;42.630;23.192;2023-02-20T04:18:15;92821.28;;;6.39;75.54
64602;BME280;51013;42.630;23.192;2023-02-20T04:20:44;92851.47;;;6.62;76.88
64602;BME280;51013;42.630;23.192;2023-02-20T04:23:14;92854.09;;;6.62;76.97
64602;BME280;51013;42.630;23.192;2023-02-20T04:25:44;92836.19;;;6.70;76.83
64602;BME280;51013;42.630;23.192;2023-02-20T04:28:14;92835.28;;;6.74;76.85
64602;BME280;51013;42.630;23.192;2023-02-20T04:30:42;92834.50;;;6.74;75.72
64602;BME280;51013;42.630;23.192;2023-02-20T04:33:09;92833.34;;;6.57;76.07
64602;BME280;51013;42.630;23.192;2023-02-20T04:35:36;92849.66;;;6.63;75.24
64602;BME280;51013;42.630;23.192;2023-02-20T04:38:03;92855.28;;;6.56;75.54
64602;BME280;51013;42.630;23.192;2023-02-20T04:40:30;92878.03;;;6.56;74.57
64602;BME280;51013;42.630;23.192;2023-02-20T04:42:56;92881.63;;;6.46;75.28
64602;BME280;51013;42.630;23.192;2023-02-20T04:45:24;92883.66;;;6.49;76.17
64602;BME280;51013;42.630;23.192;2023-02-20T04:47:51;92873.03;;;6.23;74.04
64602;BME280;51013;42.630;23.192;2023-02-20T04:50:20;92890.47;;;6.36;74.79
64602;BME280;51013;42.630;23.192;2023-02-20T04:52:47;92863.25;;;6.51;73.94
64602;BME280;51013;42.630;23.192;2023-02-20T04:55:14;92885.97;;;6.51;75.56
64602;BME280;51013;42.630;23.192;2023-02-20T04:57:41;92893.63;;;6.47;76.43
64602;BME280;51013;42.630;23.192;2023-02-20T05:00:09;92901.50;;;6.33;75.21
64602;BME280;51013;42.630;23.192;2023-02-20T05:02:38;92885.31;;;6.22;75.26
64602;BME280;51013;42.630;23.192;2023-02-20T05:05:08;92903.72;;;6.04;77.23
64602;BME280;51013;42.630;23.192;2023-02-20T05:07:40;92911.06;;;6.01;77.05
64602;BME280;51013;42.630;23.192;2023-02-20T05:10:07;92924.09;;;6.01;75.86
64602;BME280;51013;42.630;23.192;2023-02-20T05:12:34;92921.31;;;5.84;76.21
64602;BME280;51013;42.630;23.192;2023-02-20T05:15:01;92917.44;;;5.95;75.00
64602;BME280;51013;42.630;23.192;2023-02-20T05:17:28;92914.75;;;6.00;73.61
64602;BME280;51013;42.630;23.192;2023-02-20T05:19:56;92908.94;;;5.90;71.16
64602;BME280;51013;42.630;23.192;2023-02-20T05:22:23;92912.63;;;5.89;71.80
64602;BME280;51013;42.630;23.192;2023-02-20T05:24:50;92902.94;;;5.89;71.25
64602;BME280;51013;42.630;23.192;2023-02-20T05:27:18;92894.00;;;5.68;71.56
64602;BME280;51013;42.630;23.192;2023-02-20T05:29:46;92902.41;;;5.78;71.94
64602;BME280;51013;42.630;23.192;2023-02-20T05:32:13;92903.53;;;5.86;71.92
64602;BME280;51013;42.630;23.192;2023-02-20T05:34:41;92904.59;;;5.85;71.79
64602;BME280;51013;42.630;23.192;2023-02-20T05:37:09;92897.75;;;5.75;73.06
64602;BME280;51013;42.630;23.192;2023-02-20T05:39:36;92926.69;;;5.88;73.59
64602;BME280;51013;42.630;23.192;2023-02-20T05:42:04;92928.06;;;5.99;73.35
64602;BME280;51013;42.630;23.192;2023-02-20T05:44:32;92926.63;;;6.07;72.72
64602;BME280;51013;42.630;23.192;2023-02-20T05:46:59;92917.53;;;6.04;72.89
64602;BME280;51013;42.630;23.192;2023-02-20T05:49:26;92939.75;;;6.01;72.75
64602;BME280;51013;42.630;23.192;2023-02-20T05:51:54;92946.59;;;5.83;73.74
64602;BME280;51013;42.630;23.192;2023-02-20T05:54:23;92949.13;;;5.89;73.39
64602;BME280;51013;42.630;23.192;2023-02-20T05:56:50;92955.50;;;5.69;76.17
64602;BME280;51013;42.630;23.192;2023-02-20T05:59:19;92958.59;;;5.85;75.60
64602;BME280;51013;42.630;23.192;2023-02-20T06:01:46;92950.84;;;5.79;75.72
64602;BME280;51013;42.630;23.192;2023-02-20T06:04:16;92943.22;;;5.69;76.54
64602;BME280;51013;42.630;23.192;2023-02-20T06:06:43;92944.41;;;5.77;76.59
64602;BME280;51013;42.630;23.192;2023-02-20T06:09:11;92952.28;;;5.86;76.25
64602;BME280;51013;42.630;23.192;2023-02-20T06:11:47;92960.13;;;5.86;75.81
64602;BME280;51013;42.630;23.192;2023-02-20T06:14:15;92961.47;;;5.83;74.81
64602;BME280;51013;42.630;23.192;2023-02-20T06:16:43;92969.97;;;5.89;74.66
64602;BME280;51013;42.630;23.192;2023-02-20T06:19:10;92971.50;;;5.90;75.68
64602;BME280;51013;42.630;23.192;2023-02-20T06:21:37;92966.41;;;5.85;74.86
64602;BME280;51013;42.630;23.192;2023-02-20T06:24:05;92969.50;;;5.87;76.12
64602;BME280;51013;42.630;23.192;2023-02-20T06:26:38;92970.19;;;5.92;75.80
64602;BME280;51013;42.630;23.192;2023-02-20T06:29:06;92961.56;;;6.06;74.97
64602;BME280;51013;42.630;23.192;2023-02-20T06:31:34;92981.06;;;6.08;75.28
64602;BME280;51013;42.630;23.192;2023-02-20T06:34:00;92969.00;;;6.12;74.73
64602;BME280;51013;42.630;23.192;2023-02-20T06:36:28;92971.91;;;6.11;74.84
64602;BME280;51013;42.630;23.192;2023-02-20T06:38:55;92976.22;;;6.29;72.94
64602;BME280;51013;42.630;23.192;2023-02-20T06:41:23;92959.75;;;6.42;72.05
64602;BME280;51013;42.630;23.192;2023-02-20T06:43:49;92980.38;;;6.30;72.09
64602;BME280;51013;42.630;23.192;2023-02-20T06:46:17;92990.44;;;6.23;73.35
64602;BME280;51013;42.630;23.192;2023-02-20T06:48:45;93009.25;;;6.34;72.97
64602;BME280;51013;42.630;23.192;2023-02-20T06:51:11;92974.50;;;6.25;72.51
64602;BME280;51013;42.630;23.192;2023-02-20T06:53:38;92999.09;;;6.32;73.25
64602;BME280;51013;42.630;23.192;2023-02-20T06:56:07;93008.81;;;6.18;72.70
64602;BME280;51013;42.630;23.192;2023-02-20T06:58:35;93011.41;;;6.18;72.69
64602;BME280;51013;42.630;23.192;2023-02-20T07:01:02;93001.72;;;6.32;71.36
64602;BME280;51013;42.630;23.192;2023-02-20T07:03:30;93015.09;;;6.31;72.59
64602;BME280;51013;42.630;23.192;2023-02-20T07:05:57;93012.84;;;6.24;71.82
64602;BME280;51013;42.630;23.192;2023-02-20T07:08:24;92998.38;;;6.18;70.65
64602;BME280;51013;42.630;23.192;2023-02-20T07:10:50;93007.28;;;6.17;71.58
64602;BME280;51013;42.630;23.192;2023-02-20T07:13:19;93017.38;;;6.32;69.79
64602;BME280;51013;42.630;23.192;2023-02-20T07:15:46;93008.09;;;6.40;70.21
64602;BME280;51013;42.630;23.192;2023-02-20T07:18:13;93033.63;;;6.29;68.61
64602;BME280;51013;42.630;23.192;2023-02-20T07:20:42;93019.78;;;6.42;70.51
64602;BME280;51013;42.630;23.192;2023-02-20T07:23:09;93031.56;;;6.54;67.56
64602;BME280;51013;42.630;23.192;2023-02-20T07:25:37;93018.22;;;6.55;67.80
64602;BME280;51013;42.630;23.192;2023-02-20T07:28:03;93029.84;;;6.49;67.52
64602;BME280;51013;42.630;23.192;2023-02-20T07:30:32;93043.03;;;6.67;65.81
64602;BME280;51013;42.630;23.192;2023-02-20T07:32:59;93027.84;;;6.69;65.65
64602;BME280;51013;42.630;23.192;2023-02-20T07:35:26;93039.56;;;6.71;64.76
64602;BME280;51013;42.630;23.192;2023-02-20T07:37:54;93035.97;;;6.67;64.67
64602;BME280;51013;42.630;23.192;2023-02-20T07:40:20;93027.53;;;6.70;65.09
64602;BME280;51013;42.630;23.192;2023-02-20T07:42:47;93025.59;;;6.76;64.79
64602;BME280;51013;42.630;23.192;2023-02-20T07:45:14;93040.88;;;6.69;63.46
64602;BME280;51013;42.630;23.192;2023-02-20T07:47:40;93023.97;;;6.66;63.29
64602;BME280;51013;42.630;23.192;2023-02-20T07:50:08;92971.25;;;6.41;60.71
64602;BME280;51013;42.630;23.192;2023-02-20T07:52:35;93034.56;;;6.84;61.28
64602;BME280;51013;42.630;23.192;2023-02-20T07:55:03;93019.53;;;6.89;58.14
64602;BME280;51013;42.630;23.192;2023-02-20T07:57:32;93036.72;;;7.04;57.58
64602;BME280;51013;42.630;23.192;2023-02-20T07:59:59;93030.78;;;7.12;61.00
64602;BME280;51013;42.630;23.192;2023-02-20T08:02:26;93032.44;;;7.08;61.37
64602;BME280;51013;42.630;23.192;2023-02-20T08:04:53;93028.69;;;7.00;57.53
64602;BME280;51013;42.630;23.192;2023-02-20T08:07:19;93035.63;;;7.05;59.44
64602;BME280;51013;42.630;23.192;2023-02-20T08:09:46;93046.69;;;7.25;57.87
64602;BME280;51013;42.630;23.192;2023-02-20T08:12:14;93028.22;;;7.21;58.60
64602;BME280;51013;42.630;23.192;2023-02-20T08:14:41;93047.50;;;7.34;57.88
64602;BME280;51013;42.630;23.192;2023-02-20T08:17:08;93052.41;;;7.27;59.12
64602;BME280;51013;42.630;23.192;2023-02-20T08:19:36;93052.44;;;7.35;58.81
64602;BME280;51013;42.630;23.192;2023-02-20T08:22:02;93048.34;;;7.43;55.56
64602;BME280;51013;42.630;23.192;2023-02-20T08:24:29;93042.81;;;7.45;56.47
64602;BME280;51013;42.630;23.192;2023-02-20T08:26:56;93051.78;;;7.52;57.08
64602;BME280;51013;42.630;23.192;2023-02-20T08:29:24;93067.34;;;7.57;54.94
64602;BME280;51013;42.630;23.192;2023-02-20T08:31:51;93061.59;;;7.47;52.40
64602;BME280;51013;42.630;23.192;2023-02-20T08:34:17;93037.06;;;7.34;53.64
64602;BME280;51013;42.630;23.192;2023-02-20T08:36:44;93060.69;;;7.51;53.47
64602;BME280;51013;42.630;23.192;2023-02-20T08:39:11;93053.94;;;7.50;53.45
64602;BME280;51013;42.630;23.192;2023-02-20T08:41:41;93065.38;;;7.63;54.10
64602;BME280;51013;42.630;23.192;2023-02-20T08:44:08;93070.25;;;7.56;52.46
64602;BME280;51013;42.630;23.192;2023-02-20T08:46:39;93049.97;;;7.61;53.23
64602;BME280;51013;42.630;23.192;2023-02-20T08:49:11;93041.47;;;7.56;52.76
64602;BME280;51013;42.630;23.192;2023-02-20T08:51:37;93048.59;;;7.64;52.60
64602;BME280;51013;42.630;23.192;2023-02-20T08:54:04;93026.00;;;7.68;51.68
64602;BME280;51013;42.630;23.192;2023-02-20T08:56:31;93055.72;;;7.72;53.33
64602;BME280;51013;42.630;23.192;2023-02-20T08:58:58;93048.22;;;7.79;52.91
64602;BME280;51013;42.630;23.192;2023-02-20T09:01:24;93047.31;;;7.84;51.75
64602;BME280;51013;42.630;23.192;2023-02-20T09:03:52;93045.44;;;7.76;52.12
64602;BME280;51013;42.630;23.192;2023-02-20T09:06:20;93042.03;;;7.75;54.31
64602;BME280;51013;42.630;23.192;2023-02-20T09:08:49;93040.66;;;7.78;53.18
64602;BME280;51013;42.630;23.192;2023-02-20T09:11:15;93040.88;;;7.90;52.34
64602;BME280;51013;42.630;23.192;2023-02-20T09:13:43;93019.66;;;8.00;52.79
64602;BME280;51013;42.630;23.192;2023-02-20T09:16:11;93033.19;;;7.94;51.65
64602;BME280;51013;42.630;23.192;2023-02-20T09:18:38;93031.06;;;7.96;52.56
64602;BME280;51013;42.630;23.192;2023-02-20T09:21:09;93047.09;;;8.03;53.42
64602;BME280;51013;42.630;23.192;2023-02-20T09:23:36;93029.44;;;8.17;51.77
64602;BME280;51013;42.630;23.192;2023-02-20T09:26:03;93022.91;;;8.06;52.46
64602;BME280;51013;42.630;23.192;2023-02-20T09:28:30;93026.94;;;8.03;52.33
64602;BME280;51013;42.630;23.192;2023-02-20T09:30:57;93025.06;;;7.95;52.19
64602;BME280;51013;42.630;23.192;2023-02-20T09:33:25;93033.88;;;8.17;52.29
64602;BME280;51013;42.630;23.192;2023-02-20T09:35:52;93024.22;;;8.26;52.85
64602;BME280;51013;42.630;23.192;2023-02-20T09:38:21;93049.47;;;8.31;51.57
64602;BME280;51013;42.630;23.192;2023-02-20T09:40:53;93011.88;;;8.18;51.45
64602;BME280;51013;42.630;23.192;2023-02-20T09:43:29;93017.78;;;8.41;52.61
64602;BME280;51013;42.630;23.192;2023-02-20T09:46:05;93008.41;;;8.57;51.77
64602;BME280;51013;42.630;23.192;2023-02-20T09:48:50;93006.75;;;8.79;50.11
64602;BME280;51013;42.630;23.192;2023-02-20T09:51:21;93009.97;;;8.67;49.65
64602;BME280;51013;42.630;23.192;2023-02-20T09:53:55;92997.34;;;8.69;49.13
64602;BME280;51013;42.630;23.192;2023-02-20T09:56:26;93010.28;;;8.74;49.78
64602;BME280;51013;42.630;23.192;2023-02-20T09:58:57;93029.72;;;8.82;46.46
64602;BME280;51013;42.630;23.192;2023-02-20T10:01:28;93003.06;;;8.80;45.87
64602;BME280;51013;42.630;23.192;2023-02-20T10:03:57;93019.25;;;8.82;45.88
64602;BME280;51013;42.630;23.192;2023-02-20T10:06:27;93015.69;;;8.95;45.69
64602;BME280;51013;42.630;23.192;2023-02-20T10:08:56;92960.06;;;8.72;44.34
64602;BME280;51013;42.630;23.192;2023-02-20T10:11:40;92973.31;;;8.85;44.45
64602;BME280;51013;42.630;23.192;2023-02-20T10:14:26;93003.00;;;9.23;43.11
64602;BME280;51013;42.630;23.192;2023-02-20T10:17:02;92991.94;;;9.00;43.05
64602;BME280;51013;42.630;23.192;2023-02-20T10:19:41;92992.41;;;8.85;42.46
64602;BME280;51013;42.630;23.192;2023-02-20T10:22:13;92999.50;;;8.93;42.63
64602;BME280;51013;42.630;23.192;2023-02-20T10:25:02;92974.81;;;9.12;41.90
64602;BME280;51013;42.630;23.192;2023-02-20T10:27:35;92997.75;;;9.23;41.58
64602;BME280;51013;42.630;23.192;2023-02-20T10:30:09;92970.16;;;9.26;41.99
64602;BME280;51013;42.630;23.192;2023-02-20T10:32:42;92982.88;;;9.54;41.91
64602;BME280;51013;42.630;23.192;2023-02-20T10:35:13;92980.25;;;9.54;40.94
64602;BME280;51013;42.630;23.192;2023-02-20T10:37:43;92990.78;;;9.45;41.02
64602;BME280;51013;42.630;23.192;2023-02-20T10:40:17;92976.75;;;9.41;41.04
64602;BME280;51013;42.630;23.192;2023-02-20T10:42:50;92973.38;;;9.32;41.82
64602;BME280;51013;42.630;23.192;2023-02-20T10:45:24;92973.34;;;9.49;42.36
64602;BME280;51013;42.630;23.192;2023-02-20T10:47:56;92964.97;;;9.56;42.46
64602;BME280;51013;42.630;23.192;2023-02-20T10:50:30;92971.44;;;9.67;41.90
64602;BME280;51013;42.630;23.192;2023-02-20T10:53:03;92968.75;;;9.76;41.92
64602;BME280;51013;42.630;23.192;2023-02-20T10:55:38;92976.09;;;9.91;42.02
64602;BME280;51013;42.630;23.192;2023-02-20T10:58:10;92960.59;;;9.69;42.50
64602;BME280;51013;42.630;23.192;2023-02-20T11:00:42;92967.97;;;9.84;43.68
64602;BME280;51013;42.630;23.192;2023-02-20T11:03:14;92961.38;;;10.08;43.75
64602;BME280;51013;42.630;23.192;2023-02-20T11:05:47;92971.16;;;10.19;43.06
64602;BME280;51013;42.630;23.192;2023-02-20T11:08:15;92976.41;;;10.19;42.44
64602;BME280;51013;42.630;23.192;2023-02-20T11:10:47;92972.88;;;10.15;43.49
64602;BME280;51013;42.630;23.192;2023-02-20T11:13:17;92964.25;;;10.15;42.49
64602;BME280;51013;42.630;23.192;2023-02-20T11:15:47;92969.56;;;10.27;43.65
64602;BME280;51013;42.630;23.192;2023-02-20T11:18:21;92949.41;;;10.19;43.01
64602;BME280;51013;42.630;23.192;2023-02-20T11:20:51;92938.06;;;10.27;43.75
64602;BME280;51013;42.630;23.192;2023-02-20T11:23:39;92949.31;;;10.36;43.03
64602;BME280;51013;42.630;23.192;2023-02-20T11:26:29;92956.75;;;10.55;41.72
64602;BME280;51013;42.630;23.192;2023-02-20T11:28:59;92948.03;;;10.63;41.38
64602;BME280;51013;42.630;23.192;2023-02-20T11:31:28;92951.81;;;10.75;42.25
64602;BME280;51013;42.630;23.192;2023-02-20T11:33:56;92923.84;;;10.70;41.46
64602;BME280;51013;42.630;23.192;2023-02-20T11:36:24;92944.78;;;11.00;41.12
64602;BME280;51013;42.630;23.192;2023-02-20T11:38:57;92930.88;;;10.99;41.63
64602;BME280;51013;42.630;23.192;2023-02-20T11:41:32;92928.13;;;10.96;41.14
64602;BME280;51013;42.630;23.192;2023-02-20T11:44:09;92934.53;;;11.07;41.15
64602;BME280;51013;42.630;23.192;2023-02-20T11:46:42;92939.69;;;11.16;41.32
64602;BME280;51013;42.630;23.192;2023-02-20T11:49:09;92949.22;;;11.20;40.37
64602;BME280;51013;42.630;23.192;2023-02-20T11:51:38;92951.97;;;11.24;41.49
64602;BME280;51013;42.630;23.192;2023-02-20T11:54:06;92941.63;;;11.40;39.92
64602;BME280;51013;42.630;23.192;2023-02-20T11:56:35;92947.31;;;11.09;40.30
64602;BME280;51013;42.630;23.192;2023-02-20T11:59:30;92938.69;;;11.08;39.67
64602;BME280;51013;42.630;23.192;2023-02-20T12:02:24;92947.00;;;11.10;39.54
64602;BME280;51013;42.630;23.192;2023-02-20T12:05:15;92935.06;;;11.13;40.22
64602;BME280;51013;42.630;23.192;2023-02-20T12:07:45;92922.19;;;11.32;39.73
64602;BME280;51013;42.630;23.192;2023-02-20T12:10:24;92936.94;;;11.70;38.46
64602;BME280;51013;42.630;23.192;2023-02-20T12:12:54;92928.81;;;11.63;37.76
64602;BME280;51013;42.630;23.192;2023-02-20T12:15:24;92927.38;;;11.53;38.50
64602;BME280;51013;42.630;23.192;2023-02-20T12:18:12;92919.72;;;11.73;38.91
64602;BME280;51013;42.630;23.192;2023-02-20T12:20:44;92934.50;;;11.65;38.18
64602;BME280;51013;42.630;23.192;2023-02-20T12:23:19;92945.25;;;11.60;38.87
64602;BME280;51013;42.630;23.192;2023-02-20T12:25:55;92942.63;;;11.72;38.25
64602;BME280;51013;42.630;23.192;2023-02-20T12:28:36;92942.22;;;11.82;39.50
64602;BME280;51013;42.630;23.192;2023-02-20T12:31:16;92933.13;;;11.92;37.87
64602;BME280;51013;42.630;23.192;2023-02-20T12:34:01;92951.88;;;12.15;38.26
64602;BME280;51013;42.630;23.192;2023-02-20T12:36:34;92949.88;;;12.25;37.95
64602;BME280;51013;42.630;23.192;2023-02-20T12:39:07;92942.63;;;12.34;37.07
64602;BME280;51013;42.630;23.192;2023-02-20T12:41:49;92942.75;;;12.37;36.87
64602;BME280;51013;42.630;23.192;2023-02-20T12:44:36;92931.31;;;12.46;37.63
64602;BME280;51013;42.630;23.192;2023-02-20T12:47:15;92934.66;;;12.58;38.24
64602;BME280;51013;42.630;23.192;2023-02-20T12:49:54;92950.41;;;12.83;38.08
64602;BME280;51013;42.630;23.192;2023-02-20T12:52:50;92935.28;;;12.27;37.51
64602;BME280;51013;42.630;23.192;2023-02-20T12:55:23;92921.31;;;12.51;37.82
64602;BME280;51013;42.630;23.192;2023-02-20T12:58:05;92926.34;;;12.44;37.05
64602;BME280;51013;42.630;23.192;2023-02-20T13:00:41;92898.69;;;12.50;37.42
64602;BME280;51013;42.630;23.192;2023-02-20T13:03:12;92909.31;;;12.54;37.21
64602;BME280;51013;42.630;23.192;2023-02-20T13:05:44;92918.38;;;12.69;38.24
64602;BME280;51013;42.630;23.192;2023-02-20T13:08:14;92912.25;;;12.93;38.28
64602;BME280;51013;42.630;23.192;2023-02-20T13:10:55;92917.50;;;13.21;37.59
64602;BME280;51013;42.630;23.192;2023-02-20T13:13:22;92910.81;;;13.39;36.66
64602;BME280;51013;42.630;23.192;2023-02-20T13:15:57;92920.81;;;13.18;37.35
64602;BME280;51013;42.630;23.192;2023-02-20T13:18:33;92914.34;;;13.15;36.92
64602;BME280;51013;42.630;23.192;2023-02-20T13:21:05;92931.94;;;13.39;36.99
64602;BME280;51013;42.630;23.192;2023-02-20T13:23:35;92928.13;;;13.09;37.83
64602;BME280;51013;42.630;23.192;2023-02-20T13:26:05;92954.72;;;13.03;37.34
64602;BME280;51013;42.630;23.192;2023-02-20T13:28:50;92954.97;;;12.98;38.07